FVGR weather

Grand Reef Airport
Mutare, Manicaland Province, Zimbabwe

Public forecast

Using degrees Celsius for public forecast. Weather courtesy of forecast.io.

Closest aviation weather report (METAR) to Grand Reef Airport

Closest report is Chimoio Airport, 56.5 nm (104.6 km) E. Retrieved 2020/07/10 12:00 UTC (37 minutes ago):

FQCH 101200Z 05011KT 9999 FEW020 28/15 Q1019

Closest aviation forecast (TAF) to Grand Reef Airport

Forecast is more than 6 hours old.

Closest forecast is Chimoio Airport, 56.5 nm (104.6 km) E. Retrieved 2020/07/10 06:00 UTC (7 hours ago):

TAF FQCH 100400Z 1006/1106 VRB03KT CAVOK TX27/1013Z TN15/1103Z BECMG 1012/1014 02008KT BECMG 1018/1020 07010KT